METAR UND TAF INFORMATION
EYVI 210520Z 34003KT 0050 R19/0175N FG VV002 M00/M00 Q1025 NOSIG

 FLUGHAFENKARTE

 RUNWAY INFORMATION
Runway 02 Runway length 8251 ft Runway width 164 ft
Runway elevation 594 ft Runway displaced threshold 0 ft Runway heading 22
Runway 20 Runway length 8251 ft Runway width 164 ft
Runway elevation 646 ft Runway displaced threshold 0 ft Runway heading 202

 AIRPORT FREQUENCIES
Type APP Name APP Frequency 120.7 MHZ
Type ATIS Name ATIS Frequency 125.8 MHZ
Type TWR Name TWR Frequency 118.2 MHZ

 AIRPORT NEAR NAVIGATION AIDS
Type NDB Name Vilnius Frequency 385 KHZ
Type VOR-DME Name Vilnius Frequency 113800 KHZ



Aktuelle Version 4.2.2: Changelog

Impressum | Datenschutzerklärung

Virtual Airlines Manager